createdAt,value
2022-08-22T00:01:06.067Z,21.28
2022-08-22T00:02:49.631Z,21.74
2022-08-22T00:02:55.614Z,21.41
2022-08-22T00:03:36.456Z,21.26
2022-08-22T00:06:09.318Z,21.23
2022-08-22T00:08:40.132Z,21.23
2022-08-22T00:11:09.004Z,21.23
2022-08-22T00:13:39.728Z,21.23
2022-08-22T00:16:09.074Z,21.20
2022-08-22T00:18:38.307Z,21.20
2022-08-22T00:21:07.420Z,21.21
2022-08-22T00:23:35.893Z,21.19
2022-08-22T00:26:05.096Z,21.18
2022-08-22T00:28:35.013Z,21.17
2022-08-22T00:31:11.693Z,21.16
2022-08-22T00:33:41.711Z,21.17
2022-08-22T00:36:14.612Z,21.16
2022-08-22T00:38:43.278Z,21.14
2022-08-22T00:41:11.715Z,21.14
2022-08-22T00:44:06.397Z,21.13
2022-08-22T00:46:42.669Z,21.12
2022-08-22T00:49:17.532Z,21.12
2022-08-22T00:52:06.205Z,21.11
2022-08-22T00:54:39.944Z,21.07
2022-08-22T00:57:13.029Z,21.08
2022-08-22T00:59:44.534Z,21.08
2022-08-22T01:02:19.605Z,21.08
2022-08-22T01:05:01.168Z,21.05
2022-08-22T01:07:42.614Z,21.03
2022-08-22T01:10:16.577Z,21.01
2022-08-22T01:12:48.949Z,21.01
2022-08-22T01:15:17.176Z,21.00
2022-08-22T01:18:00.191Z,21.00
2022-08-22T01:20:48.837Z,20.99
2022-08-22T01:23:26.627Z,20.99
2022-08-22T01:26:12.978Z,20.98
2022-08-22T01:28:58.707Z,20.97
2022-08-22T01:31:47.220Z,20.97
2022-08-22T01:34:33.488Z,20.96
2022-08-22T01:37:07.583Z,20.94
2022-08-22T01:39:39.877Z,20.94
2022-08-22T01:42:22.866Z,20.93
2022-08-22T01:45:14.714Z,20.93
2022-08-22T01:47:43.920Z,20.92
2022-08-22T01:50:12.728Z,20.93
2022-08-22T01:52:43.196Z,20.90
2022-08-22T01:55:12.195Z,20.90
2022-08-22T01:57:52.644Z,20.88
2022-08-22T02:00:34.819Z,20.87
2022-08-22T02:03:06.595Z,20.85
2022-08-22T02:05:37.219Z,20.87
2022-08-22T02:08:06.881Z,20.86
2022-08-22T02:10:52.380Z,20.85
2022-08-22T02:13:23.440Z,20.84
2022-08-22T02:15:51.811Z,20.84
2022-08-22T02:18:21.886Z,20.81
2022-08-22T02:20:57.913Z,20.82
2022-08-22T02:23:29.540Z,20.81
2022-08-22T02:25:57.816Z,20.81
2022-08-22T02:28:30.283Z,20.79
2022-08-22T02:31:01.212Z,20.78
2022-08-22T02:33:31.002Z,20.77
2022-08-22T02:36:02.547Z,20.76
2022-08-22T02:38:32.345Z,20.75
2022-08-22T02:41:06.031Z,20.74
2022-08-22T02:43:37.035Z,20.75
2022-08-22T02:46:07.496Z,20.73
2022-08-22T02:48:35.923Z,20.72
2022-08-22T02:51:05.257Z,20.71
2022-08-22T02:53:38.112Z,20.70
2022-08-22T02:56:07.563Z,20.71
2022-08-22T02:58:37.353Z,20.69
2022-08-22T03:01:15.437Z,20.68
2022-08-22T03:03:44.094Z,20.68
2022-08-22T03:06:26.543Z,20.68
2022-08-22T03:09:03.473Z,20.67
2022-08-22T03:11:31.634Z,20.67
2022-08-22T03:14:10.420Z,20.66
2022-08-22T03:16:39.698Z,20.65
2022-08-22T03:19:18.502Z,20.65
2022-08-22T03:21:46.761Z,20.65
2022-08-22T03:24:17.517Z,20.63
2022-08-22T03:26:46.008Z,20.61
2022-08-22T03:29:14.519Z,20.61
2022-08-22T03:31:50.160Z,20.61
2022-08-22T03:34:20.252Z,20.61
2022-08-22T03:36:48.316Z,20.61
2022-08-22T03:39:19.063Z,20.58
2022-08-22T03:42:04.354Z,20.58
2022-08-22T03:44:39.602Z,20.56
2022-08-22T03:47:16.035Z,20.53
2022-08-22T03:49:48.317Z,20.56
2022-08-22T03:52:20.893Z,20.56
2022-08-22T03:54:57.567Z,20.55
2022-08-22T03:57:45.886Z,20.55
2022-08-22T04:00:24.968Z,20.53
2022-08-22T04:02:59.321Z,20.51
2022-08-22T04:05:34.803Z,20.51
2022-08-22T04:08:10.056Z,20.50
2022-08-22T04:10:52.668Z,20.49
2022-08-22T04:13:32.749Z,20.48
2022-08-22T04:16:15.451Z,20.47
2022-08-22T04:19:04.127Z,20.48
2022-08-22T04:21:43.016Z,20.47
2022-08-22T04:24:16.833Z,20.45
2022-08-22T04:26:46.251Z,20.45
2022-08-22T04:29:15.803Z,20.45
2022-08-22T04:31:47.086Z,20.43
2022-08-22T04:34:17.182Z,20.44
2022-08-22T04:36:46.020Z,20.45
2022-08-22T04:39:18.465Z,20.44
2022-08-22T04:41:49.006Z,20.44
2022-08-22T04:44:18.683Z,20.42
2022-08-22T04:46:46.819Z,20.42
2022-08-22T04:49:15.734Z,20.43
2022-08-22T04:51:45.760Z,20.42
2022-08-22T04:54:18.006Z,20.41
2022-08-22T04:56:50.693Z,20.40
2022-08-22T04:59:18.616Z,20.40
2022-08-22T05:01:47.798Z,20.41
2022-08-22T05:04:18.570Z,20.39
2022-08-22T05:06:47.371Z,20.39
2022-08-22T05:09:16.440Z,20.41
2022-08-22T05:11:44.800Z,20.39
2022-08-22T05:14:15.253Z,20.39
2022-08-22T05:16:43.038Z,20.38
2022-08-22T05:19:15.809Z,20.39
2022-08-22T05:21:44.791Z,20.37
2022-08-22T05:24:13.537Z,20.38
2022-08-22T05:26:42.839Z,20.39
2022-08-22T05:29:10.602Z,20.39
2022-08-22T05:31:40.356Z,20.38
2022-08-22T05:34:08.928Z,20.38
2022-08-22T05:36:37.849Z,20.38
2022-08-22T05:39:06.199Z,20.38
2022-08-22T05:41:34.014Z,20.39
2022-08-22T05:44:02.108Z,20.38
2022-08-22T05:46:33.212Z,20.40
2022-08-22T05:49:02.489Z,20.41
2022-08-22T05:51:31.264Z,20.40
2022-08-22T05:54:04.144Z,20.39
2022-08-22T05:56:33.173Z,20.39
2022-08-22T05:59:02.781Z,20.40
2022-08-22T06:01:37.113Z,20.40
2022-08-22T06:04:09.649Z,20.40
2022-08-22T06:06:39.718Z,20.41
2022-08-22T06:09:08.148Z,20.39
2022-08-22T06:11:37.805Z,20.39
2022-08-22T06:14:08.425Z,20.40
2022-08-22T06:16:39.715Z,20.42
2022-08-22T06:19:19.873Z,20.43
2022-08-22T06:21:48.279Z,20.44
2022-08-22T06:24:18.929Z,20.45
2022-08-22T06:26:48.854Z,20.45
2022-08-22T06:29:17.762Z,20.45
2022-08-22T06:31:45.870Z,20.46
2022-08-22T06:34:15.023Z,20.46
2022-08-22T06:36:44.793Z,20.47
2022-08-22T06:39:16.010Z,20.49
2022-08-22T06:41:45.068Z,20.50
2022-08-22T06:44:14.950Z,20.51
2022-08-22T06:46:42.539Z,20.51
2022-08-22T06:49:10.215Z,20.52
2022-08-22T06:51:38.031Z,20.53
2022-08-22T06:54:08.108Z,20.53
2022-08-22T06:56:36.605Z,20.54
2022-08-22T06:59:04.490Z,20.55
2022-08-22T07:01:35.077Z,20.56
2022-08-22T07:04:05.092Z,20.56
2022-08-22T07:06:33.371Z,20.57
2022-08-22T07:09:06.668Z,20.59
2022-08-22T07:11:38.003Z,20.60
2022-08-22T07:14:05.947Z,20.60
2022-08-22T07:16:34.468Z,20.61
2022-08-22T07:19:02.116Z,20.62
2022-08-22T07:21:30.330Z,20.62
2022-08-22T07:24:00.931Z,20.62
2022-08-22T07:26:30.063Z,20.63
2022-08-22T07:28:59.700Z,20.63
2022-08-22T07:31:38.155Z,20.65
2022-08-22T07:34:10.712Z,20.66
2022-08-22T07:36:40.411Z,20.66
2022-08-22T07:39:16.882Z,20.67
2022-08-22T07:41:51.211Z,20.68
2022-08-22T07:44:20.423Z,20.66
2022-08-22T07:46:48.942Z,20.67
2022-08-22T07:49:17.402Z,20.69
2022-08-22T07:51:45.444Z,20.69
2022-08-22T07:54:13.862Z,20.69
2022-08-22T07:56:42.378Z,20.70
2022-08-22T07:59:13.218Z,20.70
2022-08-22T08:01:43.592Z,20.72
2022-08-22T08:04:12.565Z,20.73
2022-08-22T08:06:40.124Z,20.72
2022-08-22T08:09:07.688Z,20.74
2022-08-22T08:11:35.887Z,20.73
2022-08-22T08:14:04.272Z,20.74
2022-08-22T08:16:32.546Z,20.74
2022-08-22T08:19:01.685Z,20.74
2022-08-22T08:21:29.875Z,20.75
2022-08-22T08:23:57.818Z,20.75
2022-08-22T08:26:26.053Z,20.76
2022-08-22T08:28:53.135Z,20.77
2022-08-22T08:31:21.735Z,20.77
2022-08-22T08:33:49.888Z,20.78
2022-08-22T08:36:27.885Z,20.78
2022-08-22T08:38:56.744Z,20.78
2022-08-22T08:41:37.452Z,20.79
2022-08-22T08:44:07.057Z,20.78
2022-08-22T08:46:55.401Z,20.80
2022-08-22T08:49:26.788Z,20.80
2022-08-22T08:52:01.177Z,20.81
2022-08-22T08:54:50.013Z,20.83
2022-08-22T08:57:19.483Z,20.82
2022-08-22T08:59:49.616Z,20.82
2022-08-22T09:02:27.630Z,20.84
2022-08-22T09:05:24.518Z,20.83
2022-08-22T09:07:56.820Z,20.85
2022-08-22T09:10:43.965Z,20.86
2022-08-22T09:13:40.873Z,20.88
2022-08-22T09:16:16.186Z,20.86
2022-08-22T09:18:49.855Z,20.89
2022-08-22T09:21:34.626Z,20.88
2022-08-22T09:24:19.933Z,20.89
2022-08-22T09:26:52.748Z,20.91
2022-08-22T09:29:54.767Z,20.91
2022-08-22T09:32:28.583Z,20.96
2022-08-22T09:34:59.019Z,20.99
2022-08-22T09:37:30.483Z,21.01
2022-08-22T09:40:00.370Z,21.01
2022-08-22T09:42:31.584Z,21.03
2022-08-22T09:45:18.742Z,21.04
2022-08-22T09:47:48.138Z,21.03
2022-08-22T09:50:17.624Z,21.09
2022-08-22T09:52:51.373Z,21.08
2022-08-22T09:55:35.015Z,21.09
2022-08-22T09:58:05.727Z,21.09
2022-08-22T10:00:44.025Z,21.11
2022-08-22T10:03:13.546Z,21.13
2022-08-22T10:05:44.896Z,21.11
2022-08-22T10:08:20.241Z,21.10
2022-08-22T10:11:28.826Z,21.13
2022-08-22T10:14:01.475Z,21.17
2022-08-22T10:16:50.860Z,21.16
2022-08-22T10:19:19.036Z,21.17
2022-08-22T10:21:49.774Z,21.14
2022-08-22T10:24:25.736Z,21.12
2022-08-22T10:26:53.913Z,21.16
2022-08-22T10:29:42.970Z,21.18
2022-08-22T10:32:16.041Z,21.22
2022-08-22T10:34:44.300Z,21.22
2022-08-22T10:37:14.054Z,21.19
2022-08-22T10:39:44.010Z,21.22
2022-08-22T10:42:25.424Z,21.19
2022-08-22T10:44:59.198Z,21.24
2022-08-22T10:47:29.517Z,21.23
2022-08-22T10:49:58.288Z,21.23
2022-08-22T10:52:28.686Z,21.20
2022-08-22T10:54:57.449Z,21.26
2022-08-22T10:57:33.950Z,21.24
2022-08-22T11:00:03.172Z,21.21
2022-08-22T11:02:39.441Z,21.25
2022-08-22T11:05:17.615Z,21.23
2022-08-22T11:07:48.681Z,21.22
2022-08-22T11:10:22.578Z,21.28
2022-08-22T11:12:53.729Z,21.31
2022-08-22T11:15:26.169Z,21.34
2022-08-22T11:18:12.957Z,21.36
2022-08-22T11:20:42.626Z,21.33
2022-08-22T11:23:14.657Z,21.33
2022-08-22T11:25:54.021Z,21.31
2022-08-22T11:28:42.843Z,21.33
2022-08-22T11:31:12.634Z,21.39
2022-08-22T11:33:47.383Z,21.45
2022-08-22T11:36:26.748Z,21.45
2022-08-22T11:39:03.391Z,21.47
2022-08-22T11:41:32.396Z,21.47
2022-08-22T11:44:01.279Z,21.46
2022-08-22T11:46:31.617Z,21.52
2022-08-22T11:49:04.388Z,21.55
2022-08-22T11:51:46.094Z,21.47
2022-08-22T11:54:19.931Z,21.44
2022-08-22T11:56:48.906Z,21.50
2022-08-22T11:59:19.232Z,21.51
2022-08-22T12:01:52.599Z,21.51
2022-08-22T12:04:21.998Z,21.55
2022-08-22T12:06:51.746Z,21.58
2022-08-22T12:09:24.465Z,21.53
2022-08-22T12:12:18.142Z,21.52
2022-08-22T12:14:47.683Z,21.53
2022-08-22T12:17:22.853Z,21.57
2022-08-22T12:20:18.612Z,21.65
2022-08-22T12:22:53.446Z,21.63
2022-08-22T12:25:24.554Z,21.60
2022-08-22T12:27:55.504Z,21.56
2022-08-22T12:30:29.774Z,21.54
2022-08-22T12:33:21.925Z,21.51
2022-08-22T12:35:55.078Z,21.54
2022-08-22T12:38:37.740Z,21.50
2022-08-22T12:41:27.881Z,21.50
2022-08-22T12:43:58.879Z,21.51
2022-08-22T12:46:29.057Z,21.49
2022-08-22T12:49:14.726Z,21.54
2022-08-22T12:51:46.827Z,21.51
2022-08-22T12:54:33.105Z,21.58
2022-08-22T12:57:03.193Z,21.61
2022-08-22T12:59:31.507Z,21.60
2022-08-22T13:02:00.848Z,21.58
2022-08-22T13:04:32.630Z,21.62
2022-08-22T13:07:06.561Z,21.67
2022-08-22T13:09:35.654Z,21.77
2022-08-22T13:12:04.426Z,21.74
2022-08-22T13:14:33.896Z,21.81
2022-08-22T13:17:10.183Z,21.83
2022-08-22T13:19:54.237Z,21.80
2022-08-22T13:22:25.594Z,21.72
2022-08-22T13:24:54.998Z,21.76
2022-08-22T13:27:23.878Z,21.75
2022-08-22T13:29:57.078Z,21.67
2022-08-22T13:32:26.519Z,21.69
2022-08-22T13:34:55.740Z,21.81
2022-08-22T13:37:29.965Z,21.87
2022-08-22T13:39:59.753Z,21.86
2022-08-22T13:42:29.989Z,21.89
2022-08-22T13:44:59.030Z,21.86
2022-08-22T13:47:31.596Z,21.88
2022-08-22T13:50:04.518Z,21.91
2022-08-22T13:52:33.920Z,21.96
2022-08-22T13:55:12.583Z,21.86
2022-08-22T13:57:42.213Z,21.83
2022-08-22T14:00:11.350Z,21.81
2022-08-22T14:02:43.236Z,21.85
2022-08-22T14:05:11.922Z,21.87
2022-08-22T14:07:41.965Z,21.89
2022-08-22T14:10:15.079Z,21.86
2022-08-22T14:12:50.796Z,21.83
2022-08-22T14:15:19.658Z,21.79
2022-08-22T14:17:53.736Z,21.81
2022-08-22T14:20:32.426Z,21.79
2022-08-22T14:23:04.222Z,21.76
2022-08-22T14:25:34.742Z,21.73
2022-08-22T14:28:09.221Z,21.73
2022-08-22T14:30:38.410Z,21.72
2022-08-22T14:33:08.517Z,21.73
2022-08-22T14:35:37.984Z,21.80
2022-08-22T14:38:18.105Z,21.81
2022-08-22T14:40:46.035Z,21.77
2022-08-22T14:43:17.358Z,21.74
2022-08-22T14:45:54.908Z,21.72
2022-08-22T14:48:31.377Z,21.72
2022-08-22T14:51:00.841Z,21.70
2022-08-22T14:53:33.321Z,21.70
2022-08-22T14:56:01.880Z,21.70
2022-08-22T14:58:29.844Z,21.68
2022-08-22T15:00:57.462Z,21.69
2022-08-22T15:03:26.038Z,21.67
2022-08-22T15:05:54.975Z,21.68
2022-08-22T15:08:24.280Z,21.67
2022-08-22T15:11:10.569Z,21.67
2022-08-22T15:13:38.946Z,21.65
2022-08-22T15:16:14.087Z,21.67
2022-08-22T15:18:51.692Z,21.67
2022-08-22T15:21:24.466Z,21.65
2022-08-22T15:23:53.207Z,21.67
2022-08-22T15:26:24.373Z,21.66
2022-08-22T15:28:56.936Z,21.66
2022-08-22T15:31:24.983Z,21.72
2022-08-22T15:33:52.970Z,21.75
2022-08-22T15:36:22.052Z,21.78
2022-08-22T15:38:50.159Z,21.76
2022-08-22T15:41:31.686Z,21.73
2022-08-22T15:44:05.787Z,21.71
2022-08-22T15:46:33.889Z,21.70
2022-08-22T15:49:01.756Z,21.70
2022-08-22T15:51:33.677Z,21.69
2022-08-22T15:54:02.678Z,21.69
2022-08-22T15:56:45.832Z,21.68
2022-08-22T15:59:47.759Z,21.67
2022-08-22T16:02:24.293Z,21.68
2022-08-22T16:05:03.188Z,21.66
2022-08-22T16:07:39.144Z,21.67
2022-08-22T16:10:14.513Z,21.65
2022-08-22T16:12:44.240Z,21.66
2022-08-22T16:15:26.743Z,21.65
2022-08-22T16:17:54.627Z,21.65
2022-08-22T16:20:41.244Z,21.66
2022-08-22T16:23:08.839Z,21.66
2022-08-22T16:25:55.120Z,21.65
2022-08-22T16:28:54.301Z,21.65
2022-08-22T16:31:18.602Z,21.65
2022-08-22T16:33:46.132Z,21.65
2022-08-22T16:36:17.279Z,21.65
2022-08-22T16:38:45.135Z,21.65
2022-08-22T16:41:32.311Z,21.67
2022-08-22T16:44:18.618Z,21.65
2022-08-22T16:46:47.744Z,21.64
2022-08-22T16:49:24.196Z,21.63
2022-08-22T16:52:10.461Z,21.63
2022-08-22T16:54:44.469Z,21.63
2022-08-22T16:57:15.070Z,21.63
2022-08-22T16:59:49.115Z,21.63
2022-08-22T17:02:31.545Z,21.62
2022-08-22T17:05:03.590Z,21.63
2022-08-22T17:07:34.010Z,21.63
2022-08-22T17:10:11.623Z,21.62
2022-08-22T17:12:47.700Z,21.64
2022-08-22T17:15:18.163Z,21.62
2022-08-22T17:17:55.547Z,21.61
2022-08-22T17:20:24.548Z,21.60
2022-08-22T17:22:57.997Z,21.61
2022-08-22T17:25:28.413Z,21.59
2022-08-22T17:28:01.532Z,21.60
2022-08-22T17:30:30.273Z,21.61
2022-08-22T17:33:03.340Z,21.60
2022-08-22T17:35:37.070Z,21.57
2022-08-22T17:38:06.732Z,21.58
2022-08-22T17:40:38.086Z,21.58
2022-08-22T17:43:11.058Z,21.58
2022-08-22T17:45:47.005Z,21.57
2022-08-22T17:48:16.709Z,21.57
2022-08-22T17:50:45.989Z,21.57
2022-08-22T17:53:16.029Z,21.57
2022-08-22T17:55:53.669Z,21.57
2022-08-22T17:58:35.717Z,21.56
2022-08-22T18:01:13.573Z,21.57
2022-08-22T18:03:43.626Z,21.56
2022-08-22T18:06:11.825Z,21.56
2022-08-22T18:11:30.958Z,21.56
2022-08-22T18:14:09.550Z,21.57
2022-08-22T18:16:38.920Z,21.55
2022-08-22T18:19:09.269Z,21.55
2022-08-22T18:21:38.180Z,21.55
2022-08-22T18:24:18.309Z,21.55
2022-08-22T18:26:47.138Z,21.55
2022-08-22T18:29:16.035Z,21.54
2022-08-22T18:31:49.352Z,21.54
2022-08-22T18:34:23.400Z,21.54
2022-08-22T18:36:55.373Z,21.53
2022-08-22T18:39:26.486Z,21.53
2022-08-22T18:41:58.537Z,21.53
2022-08-22T18:44:29.575Z,21.52
2022-08-22T18:46:57.185Z,21.54
2022-08-22T18:49:43.543Z,21.53
2022-08-22T18:52:28.874Z,21.54
2022-08-22T18:55:04.159Z,21.52
2022-08-22T18:57:38.780Z,21.53
2022-08-22T19:00:13.140Z,21.53
2022-08-22T19:03:01.034Z,21.51
2022-08-22T19:05:32.560Z,21.52
2022-08-22T19:08:33.455Z,21.51
2022-08-22T19:11:21.638Z,21.52
2022-08-22T19:13:56.659Z,21.51
2022-08-22T19:16:38.339Z,21.51
2022-08-22T19:19:06.938Z,21.51
2022-08-22T19:22:17.296Z,21.51
2022-08-22T19:24:59.994Z,21.51
2022-08-22T19:27:31.284Z,21.51
2022-08-22T19:30:02.268Z,21.50
2022-08-22T19:32:44.914Z,21.51
2022-08-22T19:35:16.940Z,21.49
2022-08-22T19:37:51.667Z,21.50
2022-08-22T19:40:34.186Z,21.49
2022-08-22T19:43:01.838Z,21.50
2022-08-22T19:45:32.293Z,21.48
2022-08-22T19:48:00.874Z,21.49
2022-08-22T19:50:31.789Z,21.50
2022-08-22T19:53:04.018Z,21.48
2022-08-22T19:55:34.157Z,21.48
2022-08-22T19:58:04.333Z,21.48
2022-08-22T20:00:44.632Z,21.48
2022-08-22T20:03:15.284Z,21.48
2022-08-22T20:05:47.480Z,21.47
2022-08-22T20:08:27.839Z,21.47
2022-08-22T20:10:58.656Z,21.47
2022-08-22T20:13:26.760Z,21.47
2022-08-22T20:16:10.974Z,21.46
2022-08-22T20:19:08.924Z,21.47
2022-08-22T20:21:40.668Z,21.46
2022-08-22T20:24:08.823Z,21.47
2022-08-22T20:26:47.486Z,21.47
2022-08-22T20:29:25.906Z,21.46
2022-08-22T20:31:58.638Z,21.45
2022-08-22T20:34:27.203Z,21.47
2022-08-22T20:37:09.866Z,21.46
2022-08-22T20:39:43.669Z,21.47
2022-08-22T20:42:13.901Z,21.46
2022-08-22T20:44:43.072Z,21.46
2022-08-22T20:47:12.983Z,21.47
2022-08-22T20:49:47.751Z,21.46
2022-08-22T20:52:22.596Z,21.46
2022-08-22T20:54:58.637Z,21.46
2022-08-22T20:57:27.381Z,21.46
2022-08-22T20:59:55.532Z,21.46
2022-08-22T21:02:25.075Z,21.46
2022-08-22T21:04:53.754Z,21.45
2022-08-22T21:07:22.774Z,21.46
2022-08-22T21:10:12.146Z,21.46
2022-08-22T21:12:39.861Z,21.45
2022-08-22T21:15:07.829Z,21.46
2022-08-22T21:17:39.329Z,21.46
2022-08-22T21:20:16.671Z,21.43
2022-08-22T21:22:44.300Z,21.46
2022-08-22T21:25:11.810Z,21.45
2022-08-22T21:27:39.389Z,21.46
2022-08-22T21:30:07.997Z,21.46
2022-08-22T21:32:37.127Z,21.46
2022-08-22T21:35:04.972Z,21.45
2022-08-22T21:37:37.132Z,21.46
2022-08-22T21:40:08.319Z,21.46
2022-08-22T21:42:43.514Z,21.46
2022-08-22T21:45:31.261Z,21.46
2022-08-22T21:48:00.490Z,21.46
2022-08-22T21:50:31.719Z,21.45
2022-08-22T21:53:03.714Z,21.45
2022-08-22T21:55:32.776Z,21.44
2022-08-22T21:58:02.862Z,21.46
2022-08-22T22:00:49.014Z,21.44
2022-08-22T22:03:19.338Z,21.45
2022-08-22T22:05:46.931Z,21.44
2022-08-22T22:08:14.733Z,21.44
2022-08-22T22:10:42.881Z,21.44
2022-08-22T22:13:10.622Z,21.43
2022-08-22T22:15:38.787Z,21.43
2022-08-22T22:18:06.634Z,21.44
2022-08-22T22:20:35.493Z,21.43
2022-08-22T22:23:03.018Z,21.44
2022-08-22T22:25:40.998Z,21.44
2022-08-22T22:28:10.348Z,21.44
2022-08-22T22:30:37.945Z,21.44
2022-08-22T22:33:05.654Z,21.42
2022-08-22T22:35:33.378Z,21.42
2022-08-22T22:38:02.617Z,21.43
2022-08-22T22:40:30.709Z,21.42
2022-08-22T22:42:58.395Z,21.42
2022-08-22T22:45:25.896Z,21.42
2022-08-22T22:47:53.448Z,21.42
2022-08-22T22:50:21.086Z,21.42
2022-08-22T22:52:48.602Z,21.41
2022-08-22T22:55:24.621Z,21.41
2022-08-22T22:57:58.385Z,21.41
2022-08-22T23:00:30.526Z,21.41
2022-08-22T23:02:58.918Z,21.41
2022-08-22T23:05:26.440Z,21.41
2022-08-22T23:07:53.991Z,21.41
2022-08-22T23:10:22.915Z,21.40
2022-08-22T23:12:50.832Z,21.40
2022-08-22T23:15:18.428Z,21.40
2022-08-22T23:17:46.153Z,21.40
2022-08-22T23:20:13.843Z,21.40
2022-08-22T23:22:42.852Z,21.41
2022-08-22T23:25:10.359Z,21.40
2022-08-22T23:27:39.274Z,21.41
2022-08-22T23:30:08.661Z,21.41
2022-08-22T23:32:36.786Z,21.40
2022-08-22T23:35:04.464Z,21.40
2022-08-22T23:37:31.984Z,21.41
2022-08-22T23:39:59.504Z,21.40
2022-08-22T23:42:29.066Z,21.40
2022-08-22T23:44:57.948Z,21.40
2022-08-22T23:47:25.481Z,21.41
2022-08-22T23:49:53.070Z,21.40
2022-08-22T23:52:20.804Z,21.40
2022-08-22T23:54:48.441Z,21.40
2022-08-22T23:57:27.355Z,21.39
2022-08-22T23:59:57.760Z,21.40
